Time;durP1;ratioP1;P1;durP2;ratioP2;P2;SDS_P1;SDS_P2;PMS_P1;PMS_P2;Temp;Humidity;BMP_temperature;BMP_pressure;BME280_temperature;BME280_humidity;BME280_pressure;Samples;Min_cycle;Max_cycle;Signal;HPM_P1;HPM_P2
2021/06/09 00:01:50;;;;;;;27.73;25.47;;;24.20;99.90;;;;;;3617330;39;20575;-61
2021/06/09 00:04:18;;;;;;;27.10;25.03;;;24.20;99.90;;;;;;3626719;39;20471;-60
2021/06/09 00:06:46;;;;;;;26.80;24.50;;;24.20;99.90;;;;;;3626660;39;20530;-61
2021/06/09 00:09:12;;;;;;;24.57;22.57;;;24.20;99.90;;;;;;3625201;39;20494;-61
2021/06/09 00:11:39;;;;;;;26.77;24.77;;;24.20;99.90;;;;;;3626276;39;20482;-60
2021/06/09 00:14:08;;;;;;;26.93;24.60;;;24.20;99.90;;;;;;3625836;39;20490;-60
2021/06/09 00:16:36;;;;;;;26.23;24.23;;;24.20;99.90;;;;;;3626442;39;20478;-61
2021/06/09 00:19:05;;;;;;;27.77;25.70;;;24.20;99.90;;;;;;3616995;39;20487;-61
2021/06/09 00:21:32;;;;;;;27.33;25.13;;;24.20;99.90;;;;;;3626359;39;20475;-61
2021/06/09 00:24:00;;;;;;;26.70;24.63;;;24.20;99.90;;;;;;3627062;39;20475;-61
2021/06/09 00:26:28;;;;;;;26.70;24.70;;;24.20;99.90;;;;;;3625544;39;20536;-61
2021/06/09 00:28:56;;;;;;;28.03;25.93;;;24.20;99.90;;;;;;3626656;39;20930;-61
2021/06/09 00:31:22;;;;;;;27.50;25.40;;;24.20;99.90;;;;;;3627030;39;20514;-60
2021/06/09 00:33:50;;;;;;;26.77;24.60;;;24.20;99.90;;;;;;3618108;39;20487;-61
2021/06/09 00:36:17;;;;;;;26.00;24.10;;;24.20;99.90;;;;;;3614709;39;20559;-61
2021/06/09 00:38:45;;;;;;;27.70;25.50;;;24.20;99.90;;;;;;3615853;39;20916;-61
2021/06/09 00:41:13;;;;;;;27.03;25.03;;;24.20;99.90;;;;;;3616508;39;20716;-61
2021/06/09 00:43:41;;;;;;;25.77;23.87;;;24.20;99.90;;;;;;3616627;39;20471;-60
2021/06/09 00:46:10;;;;;;;27.50;25.30;;;24.10;99.90;;;;;;3616888;39;20479;-60
2021/06/09 00:48:43;;;;;;;27.30;25.37;;;24.20;99.90;;;;;;3616563;39;20741;-61
2021/06/09 00:51:12;;;;;;;26.47;24.40;;;24.10;99.90;;;;;;3616114;39;20471;-61
2021/06/09 00:53:48;;;;;;;27.07;24.93;;;24.20;99.90;;;;;;3616062;39;20479;-61
2021/06/09 00:56:18;;;;;;;26.17;24.07;;;24.10;99.90;;;;;;3616206;39;20479;-60
2021/06/09 00:58:47;;;;;;;26.67;24.57;;;24.20;99.90;;;;;;3616121;39;20463;-60
2021/06/09 01:01:17;;;;;;;27.90;25.70;;;24.20;99.90;;;;;;3624079;39;20483;-60
2021/06/09 01:03:46;;;;;;;26.47;24.47;;;24.10;99.90;;;;;;3626038;39;20564;-61
2021/06/09 01:06:13;;;;;;;26.43;24.47;;;24.20;99.90;;;;;;3626132;39;20474;-61
2021/06/09 01:08:42;;;;;;;26.77;24.77;;;24.20;99.90;;;;;;3626364;39;20805;-60
2021/06/09 01:11:13;;;;;;;25.33;23.43;;;24.10;99.90;;;;;;3627043;39;20494;-61
2021/06/09 01:13:42;;;;;;;26.43;24.40;;;24.10;99.90;;;;;;3616749;39;20529;-61
2021/06/09 01:16:09;;;;;;;25.80;24.00;;;24.20;99.90;;;;;;3627187;39;20486;-61
2021/06/09 01:18:37;;;;;;;26.67;24.53;;;24.20;99.90;;;;;;3626334;39;20566;-61
2021/06/09 01:21:05;;;;;;;27.40;25.10;;;24.20;99.90;;;;;;3627217;39;20466;-61
2021/06/09 01:23:35;;;;;;;26.37;24.27;;;24.20;99.90;;;;;;3627405;39;20787;-60
2021/06/09 01:26:04;;;;;;;26.80;24.80;;;24.20;99.90;;;;;;3628015;39;20488;-60
2021/06/09 01:28:31;;;;;;;26.83;24.70;;;24.10;99.90;;;;;;3627091;39;21105;-60
2021/06/09 01:30:58;;;;;;;27.10;24.90;;;24.10;99.90;;;;;;3628448;39;20482;-61
2021/06/09 01:33:26;;;;;;;26.37;24.37;;;24.20;99.90;;;;;;3627070;39;21119;-61
2021/06/09 01:35:54;;;;;;;25.63;23.73;;;24.20;99.90;;;;;;3627861;39;20478;-61
2021/06/09 01:38:22;;;;;;;26.10;24.23;;;24.10;99.90;;;;;;3628381;39;20748;-60
2021/06/09 01:40:52;;;;;;;24.70;22.90;;;24.10;99.90;;;;;;3628892;39;20467;-60
2021/06/09 01:43:19;;;;;;;25.47;23.57;;;24.20;99.90;;;;;;3628122;39;20743;-61
2021/06/09 01:45:47;;;;;;;26.77;24.70;;;24.10;99.90;;;;;;3619184;39;20945;-60
2021/06/09 01:48:15;;;;;;;26.40;24.50;;;24.10;99.90;;;;;;3627878;39;20489;-61
2021/06/09 01:50:42;;;;;;;23.93;22.10;;;24.20;99.90;;;;;;3627369;39;20493;-61
2021/06/09 01:53:10;;;;;;;25.70;23.70;;;24.10;99.90;;;;;;3626443;39;21140;-61
2021/06/09 01:55:39;;;;;;;25.50;23.50;;;24.20;99.90;;;;;;3628119;39;20480;-61
2021/06/09 01:58:12;;;;;;;25.10;23.20;;;24.10;99.90;;;;;;3628026;39;20555;-60
2021/06/09 02:00:42;;;;;;;28.37;26.17;;;24.10;99.90;;;;;;3627262;39;20813;-61
2021/06/09 02:03:12;;;;;;;26.70;24.80;;;24.20;99.90;;;;;;3627813;39;20876;-61
2021/06/09 02:05:41;;;;;;;26.00;24.20;;;24.10;99.90;;;;;;3627834;39;20478;-61
2021/06/09 02:08:09;;;;;;;25.00;23.20;;;24.10;99.90;;;;;;3628206;39;20938;-61
2021/06/09 02:10:39;;;;;;;25.03;23.33;;;24.10;99.90;;;;;;3627842;39;20505;-61
2021/06/09 02:13:09;;;;;;;26.53;24.60;;;24.10;99.90;;;;;;3628273;39;20828;-61
2021/06/09 02:15:38;;;;;;;25.47;23.67;;;24.10;99.90;;;;;;3628669;39;20526;-61
2021/06/09 02:18:09;;;;;;;25.50;23.50;;;24.10;99.90;;;;;;3627807;39;21091;-61
2021/06/09 02:20:40;;;;;;;23.50;21.80;;;24.10;99.90;;;;;;3626619;39;20551;-60
2021/06/09 02:23:09;;;;;;;25.90;24.10;;;24.10;99.90;;;;;;3626931;39;20518;-61
2021/06/09 02:25:40;;;;;;;24.17;22.47;;;24.10;99.90;;;;;;3627468;39;20566;-60
2021/06/09 02:28:08;;;;;;;25.47;23.60;;;24.10;99.90;;;;;;3627437;39;20463;-60
2021/06/09 02:30:36;;;;;;;24.03;22.40;;;24.10;99.90;;;;;;3627530;39;20781;-61
2021/06/09 02:33:04;;;;;;;24.97;23.07;;;24.10;99.90;;;;;;3627074;39;20494;-60
2021/06/09 02:35:36;;;;;;;24.33;22.57;;;24.10;99.90;;;;;;3626645;39;20558;-61
2021/06/09 02:38:06;;;;;;;24.43;22.83;;;24.10;99.90;;;;;;3626499;39;20524;-60
2021/06/09 02:40:35;;;;;;;26.87;24.87;;;24.10;99.90;;;;;;3627152;39;20482;-60
2021/06/09 02:43:04;;;;;;;26.33;24.43;;;24.10;99.90;;;;;;3626740;39;20478;-60
2021/06/09 02:45:33;;;;;;;24.10;22.40;;;24.10;99.90;;;;;;3626613;39;20506;-60
2021/06/09 02:48:04;;;;;;;25.50;23.80;;;24.10;99.90;;;;;;3615996;39;20507;-61
2021/06/09 02:50:33;;;;;;;24.40;22.70;;;24.10;99.90;;;;;;3626291;39;20482;-61
2021/06/09 02:53:04;;;;;;;24.90;23.10;;;24.10;99.90;;;;;;3626132;39;20487;-61
2021/06/09 02:55:43;;;;;;;25.90;24.10;;;24.10;99.90;;;;;;3625669;39;20487;-60
2021/06/09 02:58:14;;;;;;;25.20;23.40;;;24.10;99.90;;;;;;3626405;39;20490;-61
2021/06/09 03:00:56;;;;;;;23.67;22.07;;;24.10;99.90;;;;;;3625220;39;20801;-59
2021/06/09 03:03:35;;;;;;;23.70;22.10;;;24.10;99.90;;;;;;3626306;39;20475;-59
2021/06/09 03:06:08;;;;;;;24.50;22.77;;;24.10;99.90;;;;;;3626482;39;20477;-61
2021/06/09 03:08:41;;;;;;;24.47;22.87;;;24.10;99.90;;;;;;3626522;39;20494;-60
2021/06/09 03:11:21;;;;;;;24.43;22.63;;;24.10;99.90;;;;;;3627227;39;20571;-61
2021/06/09 03:13:59;;;;;;;24.30;22.60;;;24.10;99.90;;;;;;3626697;39;20887;-61
2021/06/09 03:16:31;;;;;;;25.40;23.60;;;24.10;99.90;;;;;;3627871;39;20558;-61
2021/06/09 03:19:04;;;;;;;25.20;23.50;;;24.10;99.90;;;;;;3627316;39;20466;-60
2021/06/09 03:21:40;;;;;;;25.37;23.70;;;24.10;99.90;;;;;;3626105;39;20497;-61
2021/06/09 03:24:13;;;;;;;25.70;24.00;;;24.10;99.90;;;;;;3626926;39;20476;-61
2021/06/09 03:26:47;;;;;;;27.60;25.70;;;24.10;99.90;;;;;;3626857;39;20566;-61
2021/06/09 03:29:24;;;;;;;26.10;24.30;;;24.10;99.90;;;;;;3626526;39;20474;-61
2021/06/09 03:31:56;;;;;;;27.47;25.57;;;24.10;99.90;;;;;;3625809;39;20510;-61
2021/06/09 03:34:28;;;;;;;24.70;23.00;;;24.10;99.90;;;;;;3625631;39;20566;-60
2021/06/09 03:36:59;;;;;;;26.70;24.83;;;24.10;99.90;;;;;;3625695;39;20478;-61
2021/06/09 03:39:28;;;;;;;25.90;24.10;;;24.10;99.90;;;;;;3624801;39;20507;-61
2021/06/09 03:41:58;;;;;;;25.75;23.95;;;24.10;99.90;;;;;;3625722;39;20470;-61
2021/06/09 03:44:30;;;;;;;26.13;24.43;;;24.10;99.90;;;;;;3625643;39;20226;-60
2021/06/09 03:47:01;;;;;;;26.20;24.40;;;24.10;99.90;;;;;;3625598;39;20884;-61
2021/06/09 03:49:30;;;;;;;25.10;23.40;;;24.10;99.90;;;;;;3624836;39;20510;-61
2021/06/09 03:51:57;;;;;;;25.80;24.17;;;24.10;99.90;;;;;;3625361;39;20534;-61
2021/06/09 03:54:29;;;;;;;27.50;25.70;;;24.10;99.90;;;;;;3625035;39;20475;-61
2021/06/09 03:56:59;;;;;;;26.60;24.83;;;24.10;99.90;;;;;;3625392;39;20726;-61
2021/06/09 03:59:27;;;;;;;25.93;24.20;;;24.10;99.90;;;;;;3616046;39;20477;-61
2021/06/09 04:01:58;;;;;;;25.10;23.40;;;24.10;99.90;;;;;;3615630;39;20490;-61
2021/06/09 04:04:29;;;;;;;28.03;26.17;;;24.10;99.90;;;;;;3624361;39;20822;-60
2021/06/09 04:06:58;;;;;;;27.03;25.23;;;24.10;99.90;;;;;;3624937;39;20868;-61
2021/06/09 04:09:26;;;;;;;29.33;27.23;;;24.10;99.90;;;;;;3624978;39;20466;-61
2021/06/09 04:11:58;;;;;;;29.07;26.90;;;24.10;99.90;;;;;;3626348;39;20475;-60
2021/06/09 04:14:33;;;;;;;27.33;25.53;;;24.10;99.90;;;;;;3624160;39;21199;-61
2021/06/09 04:17:03;;;;;;;27.80;25.87;;;24.10;99.90;;;;;;3624509;39;20565;-61
2021/06/09 04:19:33;;;;;;;27.70;25.90;;;24.10;99.90;;;;;;3624080;39;20551;-60
2021/06/09 04:22:03;;;;;;;27.07;25.37;;;24.10;99.90;;;;;;3615370;39;20458;-61
2021/06/09 04:24:31;;;;;;;27.10;25.30;;;24.10;99.90;;;;;;3625188;39;20470;-60
2021/06/09 04:26:59;;;;;;;27.57;25.73;;;24.10;99.90;;;;;;3624069;39;20479;-61
2021/06/09 04:29:29;;;;;;;29.63;27.53;;;24.10;99.90;;;;;;3623051;39;21020;-61
2021/06/09 04:31:57;;;;;;;27.07;25.37;;;24.00;99.90;;;;;;3624797;39;20479;-61
2021/06/09 04:34:24;;;;;;;28.27;26.40;;;24.10;99.90;;;;;;3614171;39;20496;-60
2021/06/09 04:36:55;;;;;;;27.27;25.53;;;24.10;99.90;;;;;;3623427;39;20483;-61
2021/06/09 04:39:23;;;;;;;28.80;26.80;;;24.10;99.90;;;;;;3622661;39;20474;-61
2021/06/09 04:41:53;;;;;;;27.80;26.00;;;24.10;99.90;;;;;;3623125;39;20475;-60
2021/06/09 04:44:19;;;;;;;28.80;26.90;;;24.10;99.90;;;;;;3622725;39;20482;-61
2021/06/09 04:46:47;;;;;;;27.47;25.50;;;24.10;99.90;;;;;;3621762;39;20475;-61
2021/06/09 04:49:14;;;;;;;26.87;25.13;;;24.10;99.90;;;;;;3621103;39;20571;-60
2021/06/09 04:51:41;;;;;;;27.73;25.93;;;24.00;99.90;;;;;;3620785;39;20490;-61
2021/06/09 04:54:09;;;;;;;27.43;25.63;;;24.10;99.90;;;;;;3619116;39;20470;-61
2021/06/09 04:56:38;;;;;;;25.30;23.73;;;24.10;99.90;;;;;;3618850;39;20482;-61
2021/06/09 04:59:07;;;;;;;26.47;24.77;;;24.00;99.90;;;;;;3621020;39;20551;-61
2021/06/09 05:01:37;;;;;;;28.07;26.17;;;24.10;99.90;;;;;;3620075;39;20516;-61
2021/06/09 05:04:05;;;;;;;28.43;26.63;;;24.10;99.90;;;;;;3617364;39;20542;-61
2021/06/09 05:06:33;;;;;;;28.50;26.60;;;24.10;99.90;;;;;;3610743;39;20482;-61
2021/06/09 05:09:00;;;;;;;28.40;26.50;;;24.10;99.90;;;;;;3620869;39;20478;-61
2021/06/09 05:11:37;;;;;;;27.33;25.53;;;24.10;99.90;;;;;;3620708;39;20489;-60
2021/06/09 05:14:07;;;;;;;27.83;26.00;;;24.10;99.90;;;;;;3617624;39;20485;-61
2021/06/09 05:16:37;;;;;;;26.40;24.60;;;24.10;99.90;;;;;;3618461;39;20470;-61
2021/06/09 05:19:07;;;;;;;27.07;25.27;;;24.10;99.90;;;;;;3617257;39;21177;-61
2021/06/09 05:21:37;;;;;;;27.33;25.53;;;24.10;99.90;;;;;;3618146;39;20471;-60
2021/06/09 05:24:06;;;;;;;28.07;26.27;;;24.10;99.90;;;;;;3616707;39;20482;-61
2021/06/09 05:26:35;;;;;;;27.87;26.00;;;24.10;99.90;;;;;;3617407;39;20467;-61
2021/06/09 05:29:06;;;;;;;27.53;25.77;;;24.10;99.90;;;;;;3618135;39;20494;-60
2021/06/09 05:31:35;;;;;;;27.93;25.90;;;24.10;99.90;;;;;;3616806;39;20868;-61
2021/06/09 05:34:03;;;;;;;30.80;28.70;;;24.10;99.90;;;;;;3614865;39;20494;-61
2021/06/09 05:36:32;;;;;;;26.80;24.90;;;24.10;99.90;;;;;;3613752;39;21224;-60
2021/06/09 05:38:59;;;;;;;27.27;25.47;;;24.10;99.90;;;;;;3612229;39;20559;-60
2021/06/09 05:41:28;;;;;;;27.30;25.50;;;24.10;99.90;;;;;;3614384;39;20474;-60
2021/06/09 05:43:58;;;;;;;26.87;25.10;;;24.10;99.90;;;;;;3609739;39;20710;-61
2021/06/09 05:46:28;;;;;;;25.80;24.00;;;24.10;99.90;;;;;;3611522;39;20798;-61
2021/06/09 05:48:55;;;;;;;27.50;25.60;;;24.10;99.80;;;;;;3610299;39;20512;-60
2021/06/09 05:51:24;;;;;;;26.93;25.23;;;24.10;99.80;;;;;;3611305;39;21375;-60
2021/06/09 05:53:54;;;;;;;26.80;25.00;;;24.10;99.80;;;;;;3611637;39;20478;-61
2021/06/09 05:56:21;;;;;;;27.33;25.53;;;24.10;99.80;;;;;;3609031;39;20797;-60
2021/06/09 05:58:47;;;;;;;27.92;25.92;;;24.10;99.80;;;;;;3608101;39;20537;-61
2021/06/09 06:01:16;;;;;;;27.60;25.70;;;24.10;99.80;;;;;;3604556;39;20241;-60
2021/06/09 06:03:44;;;;;;;27.80;25.87;;;24.10;99.80;;;;;;3603581;39;20465;-60
2021/06/09 06:06:13;;;;;;;29.13;27.13;;;24.10;99.80;;;;;;3596574;39;20557;-61
2021/06/09 06:08:41;;;;;;;29.27;27.17;;;24.10;99.80;;;;;;3586062;39;20495;-60
2021/06/09 06:11:11;;;;;;;27.50;25.60;;;24.10;99.80;;;;;;3596445;39;20729;-61
2021/06/09 06:13:39;;;;;;;28.63;26.57;;;24.10;99.80;;;;;;3596096;39;20498;-61
2021/06/09 06:16:06;;;;;;;28.90;26.90;;;24.10;99.80;;;;;;3599201;39;20594;-61
2021/06/09 06:18:38;;;;;;;27.37;25.53;;;24.10;99.90;;;;;;3608553;39;20545;-61
2021/06/09 06:21:08;;;;;;;27.83;25.83;;;24.10;99.90;;;;;;3608061;39;20894;-61
2021/06/09 06:23:36;;;;;;;32.67;29.80;;;24.10;99.90;;;;;;3604282;39;21275;-60
2021/06/09 06:26:04;;;;;;;35.27;32.00;;;24.10;99.90;;;;;;3599731;39;20489;-61
2021/06/09 06:28:32;;;;;;;36.30;33.03;;;24.10;99.90;;;;;;3607398;39;20489;-61
2021/06/09 06:31:03;;;;;;;37.03;33.40;;;24.00;99.90;;;;;;3608730;39;20516;-61
2021/06/09 06:33:32;;;;;;;35.70;32.33;;;23.90;99.90;;;;;;3607024;39;20509;-60
2021/06/09 06:36:01;;;;;;;37.43;33.93;;;23.90;99.90;;;;;;3603436;39;20884;-60
2021/06/09 06:38:29;;;;;;;35.90;32.30;;;23.80;99.90;;;;;;3608148;39;21223;-59
2021/06/09 06:40:57;;;;;;;35.67;32.07;;;23.80;99.90;;;;;;3606933;39;20484;-61
2021/06/09 06:43:24;;;;;;;34.70;31.40;;;23.80;99.90;;;;;;3598201;39;20486;-60
2021/06/09 06:45:55;;;;;;;38.57;34.87;;;23.80;99.90;;;;;;3605022;39;20959;-61
2021/06/09 06:48:23;;;;;;;52.20;42.70;;;23.80;99.90;;;;;;3593724;39;20565;-61
2021/06/09 06:50:50;;;;;;;42.33;37.97;;;23.80;99.90;;;;;;3599200;39;20490;-61
2021/06/09 06:53:20;;;;;;;60.37;43.70;;;23.80;99.90;;;;;;3608984;39;20505;-60
2021/06/09 06:55:48;;;;;;;49.97;38.43;;;23.70;99.90;;;;;;3606141;39;21443;-60
2021/06/09 06:58:16;;;;;;;36.33;32.30;;;23.80;99.90;;;;;;3598471;39;20487;-60
2021/06/09 07:00:44;;;;;;;34.90;31.53;;;23.70;99.90;;;;;;3604326;39;20519;-61
2021/06/09 07:03:12;;;;;;;32.43;29.63;;;23.80;99.90;;;;;;3608313;39;20801;-61
2021/06/09 07:05:40;;;;;;;32.27;29.37;;;23.80;99.90;;;;;;3605619;39;20866;-61
2021/06/09 07:08:07;;;;;;;29.73;27.10;;;23.70;99.90;;;;;;3604659;39;20467;-61
2021/06/09 07:10:37;;;;;;;30.43;27.77;;;23.80;99.90;;;;;;3605360;39;20513;-61
2021/06/09 07:13:05;;;;;;;27.90;25.20;;;23.80;99.90;;;;;;3598353;39;20484;-60
2021/06/09 07:15:35;;;;;;;28.47;26.07;;;23.80;99.90;;;;;;3597002;39;20990;-61
2021/06/09 07:18:03;;;;;;;30.67;28.17;;;23.80;99.90;;;;;;3582610;39;20937;-62
2021/06/09 07:20:30;;;;;;;29.07;26.67;;;23.80;99.90;;;;;;3594251;39;20467;-62
2021/06/09 07:22:58;;;;;;;27.33;24.93;;;23.70;99.90;;;;;;3593823;39;20483;-60
2021/06/09 07:25:29;;;;;;;30.83;28.33;;;23.80;99.90;;;;;;3596974;39;20482;-61
2021/06/09 07:28:05;;;;;;;28.23;26.13;;;23.80;99.90;;;;;;3601396;39;20918;-62
2021/06/09 07:30:34;;;;;;;28.70;26.50;;;23.80;99.90;;;;;;3593002;39;21156;-61
2021/06/09 07:33:02;;;;;;;29.97;27.57;;;23.70;99.90;;;;;;3602914;39;20684;-61
2021/06/09 07:35:31;;;;;;;29.20;26.90;;;23.70;99.90;;;;;;3601031;39;20502;-61
2021/06/09 07:38:03;;;;;;;29.63;27.33;;;23.70;99.90;;;;;;3592010;39;20490;-60
2021/06/09 07:40:34;;;;;;;28.60;26.50;;;23.70;99.90;;;;;;3605882;39;20495;-60
2021/06/09 07:43:07;;;;;;;30.40;27.87;;;23.70;99.90;;;;;;3608341;39;20479;-60
2021/06/09 07:45:37;;;;;;;27.00;25.00;;;23.70;99.90;;;;;;3606523;39;20482;-61
2021/06/09 07:48:05;;;;;;;28.70;26.37;;;23.70;99.90;;;;;;3605713;39;20502;-60
2021/06/09 07:50:36;;;;;;;24.50;22.60;;;23.70;99.90;;;;;;3603630;39;20471;-61
2021/06/09 07:53:06;;;;;;;26.20;24.10;;;23.70;99.90;;;;;;3605110;39;20471;-60
2021/06/09 07:55:35;;;;;;;25.10;23.23;;;23.70;99.90;;;;;;3596681;39;20480;-59
2021/06/09 07:58:04;;;;;;;26.60;24.70;;;23.70;99.90;;;;;;3594989;39;20472;-60
2021/06/09 08:00:33;;;;;;;30.00;27.70;;;23.80;99.90;;;;;;3594109;39;20487;-60
2021/06/09 08:03:02;;;;;;;29.17;26.90;;;23.80;99.90;;;;;;3597993;39;20575;-59
2021/06/09 08:05:29;;;;;;;28.27;26.17;;;23.80;99.90;;;;;;3588870;39;20480;-60
2021/06/09 08:07:58;;;;;;;29.67;27.33;;;23.80;99.90;;;;;;3577018;39;20568;-60
2021/06/09 08:10:25;;;;;;;31.17;28.67;;;23.90;99.90;;;;;;3585505;39;20489;-61
2021/06/09 08:12:56;;;;;;;32.23;29.70;;;23.90;99.90;;;;;;3595448;39;21178;-62
2021/06/09 08:15:24;;;;;;;32.80;29.93;;;23.90;99.90;;;;;;3597118;39;20928;-61
2021/06/09 08:17:52;;;;;;;30.90;28.27;;;23.90;99.90;;;;;;3600745;39;20751;-61
2021/06/09 08:20:21;;;;;;;31.20;28.50;;;23.90;99.90;;;;;;3599632;39;20802;-61
2021/06/09 08:22:48;;;;;;;31.27;28.57;;;23.90;99.90;;;;;;3601019;39;20849;-60
2021/06/09 08:25:19;;;;;;;32.70;30.00;;;23.90;99.90;;;;;;3593672;39;20493;-59
2021/06/09 08:27:47;;;;;;;32.40;29.80;;;23.90;99.90;;;;;;3592283;39;20739;-60
2021/06/09 08:30:15;;;;;;;31.57;29.07;;;24.00;99.90;;;;;;3595620;39;20583;-59
2021/06/09 08:32:43;;;;;;;30.87;28.27;;;24.00;99.90;;;;;;3606047;39;20498;-60
2021/06/09 08:35:12;;;;;;;32.73;30.13;;;24.00;99.90;;;;;;3604543;39;20794;-61
2021/06/09 08:37:42;;;;;;;33.97;31.03;;;24.00;99.90;;;;;;3603663;39;21278;-62
2021/06/09 08:40:12;;;;;;;32.00;29.30;;;24.00;99.90;;;;;;3595358;39;21162;-61
2021/06/09 08:42:42;;;;;;;32.70;29.80;;;24.00;99.90;;;;;;3596256;39;20483;-60
2021/06/09 08:45:12;;;;;;;33.30;30.27;;;24.00;99.90;;;;;;3598871;39;20498;-61
2021/06/09 08:47:40;;;;;;;31.00;28.50;;;24.00;99.90;;;;;;3605993;39;20474;-61
2021/06/09 08:50:11;;;;;;;33.53;30.33;;;24.00;99.90;;;;;;3593912;39;20929;-60
2021/06/09 08:52:45;;;;;;;34.03;31.03;;;24.00;99.90;;;;;;3596744;39;20567;-60
2021/06/09 08:55:13;;;;;;;35.97;32.53;;;24.00;99.90;;;;;;3602031;39;20486;-60
2021/06/09 08:57:41;;;;;;;32.63;29.77;;;24.00;99.90;;;;;;3600727;39;21071;-62
2021/06/09 09:00:11;;;;;;;31.17;28.63;;;24.00;99.90;;;;;;3595015;39;20479;-61
2021/06/09 09:02:39;;;;;;;32.77;30.07;;;24.00;99.90;;;;;;3598961;39;20514;-61
2021/06/09 09:05:10;;;;;;;32.90;29.97;;;24.00;99.90;;;;;;3600949;39;20862;-61
2021/06/09 09:07:38;;;;;;;30.80;28.47;;;24.00;99.90;;;;;;3598406;39;20679;-61
2021/06/09 09:10:08;;;;;;;27.97;25.80;;;24.00;99.90;;;;;;3601210;39;20687;-61
2021/06/09 09:12:36;;;;;;;29.60;27.50;;;23.90;99.90;;;;;;3598914;39;20871;-61
2021/06/09 09:15:05;;;;;;;28.83;26.20;;;23.80;99.90;;;;;;3602963;39;20535;-61
2021/06/09 09:17:49;;;;;;;28.70;26.10;;;23.70;99.90;;;;;;3601118;39;20554;-61
2021/06/09 09:20:21;;;;;;;27.40;25.50;;;23.70;99.90;;;;;;3594055;39;20475;-61
2021/06/09 09:22:51;;;;;;;27.83;25.83;;;23.60;99.90;;;;;;3594981;39;20484;-62
2021/06/09 09:25:21;;;;;;;26.80;24.27;;;23.60;99.90;;;;;;3600515;39;20483;-62
2021/06/09 09:27:58;;;;;;;28.33;25.80;;;23.60;99.90;;;;;;3594904;39;21073;-62
2021/06/09 09:30:28;;;;;;;27.60;25.60;;;23.60;99.90;;;;;;3591514;39;21380;-63
2021/06/09 09:33:02;;;;;;;28.23;26.13;;;23.60;99.90;;;;;;3594423;39;20467;-62
2021/06/09 09:35:33;;;;;;;26.47;24.70;;;23.50;99.90;;;;;;3590113;39;20486;-62
2021/06/09 09:38:11;;;;;;;28.33;26.03;;;23.50;99.90;;;;;;3581824;39;20497;-62
2021/06/09 09:40:39;;;;;;;26.17;24.33;;;23.50;99.90;;;;;;3600674;39;20473;-62
2021/06/09 09:43:07;;;;;;;27.63;25.53;;;23.60;99.90;;;;;;3604399;39;20709;-62
2021/06/09 09:45:37;;;;;;;26.97;24.70;;;23.60;99.90;;;;;;3605677;39;20475;-62
2021/06/09 09:48:15;;;;;;;26.40;24.40;;;23.60;99.90;;;;;;3605971;39;20575;-61
2021/06/09 09:50:46;;;;;;;27.93;25.73;;;23.60;99.90;;;;;;3593813;39;20482;-62
2021/06/09 09:53:18;;;;;;;27.63;25.73;;;23.50;99.90;;;;;;3604263;39;20489;-62
2021/06/09 09:56:07;;;;;;;27.90;25.90;;;23.50;99.90;;;;;;3606748;39;20480;-62
2021/06/09 09:58:38;;;;;;;27.77;25.87;;;23.50;99.90;;;;;;3598408;39;20486;-62
2021/06/09 10:01:17;;;;;;;26.60;24.80;;;23.50;99.90;;;;;;3599812;39;21350;-62
2021/06/09 10:03:46;;;;;;;27.73;25.50;;;23.50;99.90;;;;;;3603792;39;20488;-62
2021/06/09 10:06:22;;;;;;;26.70;24.90;;;23.60;99.90;;;;;;3601272;39;20514;-60
2021/06/09 10:08:52;;;;;;;27.43;25.50;;;23.60;99.90;;;;;;3599037;39;20716;-60
2021/06/09 10:11:20;;;;;;;26.00;24.20;;;23.70;99.90;;;;;;3602155;39;20477;-60
2021/06/09 10:13:48;;;;;;;26.27;24.20;;;23.70;99.90;;;;;;3597096;39;20497;-60
2021/06/09 10:16:27;;;;;;;26.90;25.00;;;23.70;99.90;;;;;;3599871;39;20486;-61
2021/06/09 10:19:01;;;;;;;27.50;25.60;;;23.80;99.90;;;;;;3601993;39;20806;-60
2021/06/09 10:21:30;;;;;;;28.23;26.07;;;23.80;99.90;;;;;;3600487;39;20518;-61
2021/06/09 10:24:05;;;;;;;25.33;23.67;;;23.90;99.90;;;;;;3603491;39;20470;-60
2021/06/09 10:26:32;;;;;;;26.63;24.80;;;23.80;99.90;;;;;;3600374;39;20527;-61
2021/06/09 10:29:04;;;;;;;26.17;24.47;;;23.90;99.90;;;;;;3603238;39;20476;-60
2021/06/09 10:31:33;;;;;;;27.10;25.30;;;23.90;99.90;;;;;;3604024;39;20489;-59
2021/06/09 10:34:00;;;;;;;27.37;25.57;;;23.90;99.90;;;;;;3603869;39;20992;-61
2021/06/09 10:36:29;;;;;;;25.53;23.73;;;23.90;99.90;;;;;;3604902;39;20961;-61
2021/06/09 10:38:57;;;;;;;26.17;24.27;;;23.90;99.90;;;;;;3596263;39;20484;-60
2021/06/09 10:41:25;;;;;;;25.77;23.87;;;23.90;99.90;;;;;;3605754;39;20425;-61
2021/06/09 10:43:54;;;;;;;24.47;22.83;;;23.90;99.90;;;;;;3602180;39;20491;-61
2021/06/09 10:46:24;;;;;;;25.00;23.20;;;23.90;99.90;;;;;;3598736;39;20547;-60
2021/06/09 10:48:56;;;;;;;26.60;24.33;;;24.00;99.90;;;;;;3602652;39;20598;-62
2021/06/09 10:51:25;;;;;;;26.47;24.60;;;24.00;99.90;;;;;;3603867;39;20502;-61
2021/06/09 10:53:53;;;;;;;27.67;25.67;;;24.10;99.90;;;;;;3590071;39;21107;-62
2021/06/09 10:56:22;;;;;;;25.73;23.93;;;24.10;99.90;;;;;;3588355;39;20710;-61
2021/06/09 10:58:51;;;;;;;27.13;25.13;;;24.10;99.90;;;;;;3602022;39;21000;-62
2021/06/09 11:01:22;;;;;;;27.97;25.80;;;24.10;99.90;;;;;;3604289;39;20474;-61
2021/06/09 11:03:55;;;;;;;28.40;26.30;;;24.20;99.90;;;;;;3602939;39;20479;-61
2021/06/09 11:06:38;;;;;;;26.90;25.10;;;24.20;99.90;;;;;;3603761;39;20734;-62
2021/06/09 11:09:16;;;;;;;28.80;26.57;;;24.10;99.90;;;;;;3590491;39;20779;-61
2021/06/09 11:11:45;;;;;;;26.40;24.30;;;24.10;99.90;;;;;;3594306;39;20579;-62
2021/06/09 11:14:26;;;;;;;22.50;20.90;;;24.10;99.90;;;;;;3599910;39;20562;-62
2021/06/09 11:16:55;;;;;;;25.37;23.47;;;24.10;99.90;;;;;;3593354;39;21175;-60
2021/06/09 11:19:38;;;;;;;23.27;21.67;;;24.10;99.70;;;;;;3604886;39;20474;-61
2021/06/09 11:22:19;;;;;;;27.13;24.93;;;24.10;99.70;;;;;;3604325;39;20503;-61
2021/06/09 11:25:17;;;;;;;24.77;23.07;;;24.10;99.80;;;;;;3595963;39;20525;-61
2021/06/09 11:27:54;;;;;;;23.60;21.90;;;24.10;99.90;;;;;;3602117;39;20821;-61
2021/06/09 11:30:45;;;;;;;23.73;21.97;;;24.20;99.90;;;;;;3602313;39;20478;-61
2021/06/09 11:33:32;;;;;;;23.57;21.87;;;24.20;99.90;;;;;;3600688;39;20716;-61
2021/06/09 11:36:00;;;;;;;21.60;20.20;;;24.20;99.90;;;;;;3599874;39;20609;-60
2021/06/09 11:38:29;;;;;;;20.53;18.90;;;24.20;99.80;;;;;;3607501;39;20942;-61
2021/06/09 11:41:02;;;;;;;21.73;19.63;;;24.20;99.00;;;;;;3605924;39;20575;-61
2021/06/09 11:43:34;;;;;;;20.20;18.80;;;24.20;99.00;;;;;;3605572;39;20470;-62
2021/06/09 11:46:05;;;;;;;20.03;18.73;;;24.20;98.20;;;;;;3595808;39;20479;-61
2021/06/09 11:48:34;;;;;;;19.90;18.50;;;24.20;98.40;;;;;;3599926;39;20497;-61
2021/06/09 11:51:21;;;;;;;19.57;18.37;;;24.20;98.50;;;;;;3603688;39;20487;-61
2021/06/09 11:53:52;;;;;;;21.90;20.17;;;24.20;98.60;;;;;;3604550;39;21297;-62
2021/06/09 11:56:28;;;;;;;18.90;17.77;;;24.20;98.60;;;;;;3598613;39;20489;-61
2021/06/09 11:58:57;;;;;;;20.10;18.80;;;24.20;98.30;;;;;;3602652;39;21184;-61
2021/06/09 12:01:38;;;;;;;20.33;19.00;;;24.20;98.40;;;;;;3601455;39;20502;-61
2021/06/09 12:04:20;;;;;;;20.60;19.10;;;24.20;98.50;;;;;;3602382;39;21241;-61
2021/06/09 12:06:51;;;;;;;20.60;19.20;;;24.20;98.60;;;;;;3601830;39;20482;-60
2021/06/09 12:09:20;;;;;;;19.83;18.63;;;24.20;98.60;;;;;;3603630;39;20491;-61
2021/06/09 12:11:52;;;;;;;19.70;18.60;;;24.20;98.70;;;;;;3604748;39;20923;-61
2021/06/09 12:14:27;;;;;;;18.80;17.70;;;24.20;98.70;;;;;;3605099;39;20489;-60
2021/06/09 12:17:18;;;;;;;19.90;18.50;;;24.20;98.70;;;;;;3608220;39;20493;-60
2021/06/09 12:19:47;;;;;;;19.80;18.17;;;24.20;98.70;;;;;;3607189;39;20495;-61
2021/06/09 12:22:17;;;;;;;20.90;19.33;;;24.20;98.80;;;;;;3606945;39;20474;-60
2021/06/09 12:25:01;;;;;;;19.67;18.47;;;24.20;98.80;;;;;;3605255;39;20528;-59
2021/06/09 12:27:30;;;;;;;19.63;18.43;;;24.20;98.60;;;;;;3604763;39;20470;-59
2021/06/09 12:30:00;;;;;;;20.37;19.07;;;24.20;98.60;;;;;;3602658;39;20484;-58
2021/06/09 12:32:29;;;;;;;20.17;19.07;;;24.20;98.60;;;;;;3607260;39;20482;-58
2021/06/09 12:35:00;;;;;;;20.80;19.40;;;24.20;98.60;;;;;;3606713;39;20475;-58
2021/06/09 12:37:31;;;;;;;19.67;18.37;;;24.20;98.60;;;;;;3606818;39;20502;-58
2021/06/09 12:40:02;;;;;;;18.03;16.93;;;24.20;98.40;;;;;;3603375;39;20491;-59
2021/06/09 12:42:31;;;;;;;18.40;17.30;;;24.20;98.10;;;;;;3606396;39;20481;-58
2021/06/09 12:44:59;;;;;;;17.80;16.80;;;24.30;98.20;;;;;;3603876;39;20487;-58